UAL2098 KBOS-KIAD
Flight info
| Callsign | UAL2098 |
|---|---|
| Flight time | N/A |
| Altitude | 34000 |
| Route | BLZZR6 BLZZR BAF HYPER9 |
| Aircraft | B38M/M-SDE1FGHILORVWXY/HB1 |
Departure
| Time | N/A |
|---|---|
| Airport | Boston Logan International Airport (KBOS) |
Arrival
| Time | 2026-05-04 16:34 |
|---|---|
| Airport | Washington Dulles International Airport (KIAD) |
| Time | Latitude | Longitude | Altitude | Speed | Heading |
|---|---|---|---|---|---|
| 2026-05-04 15:22 | 42.06209 | -72.88709 | 16891 ft | 336 kts | 236° |
| 2026-05-04 15:22 | 42.03198 | -72.93845 | 16883 ft | 336 kts | 236° |
| 2026-05-04 15:23 | 42.01754 | -72.96304 | 16893 ft | 336 kts | 236° |
| 2026-05-04 15:23 | 42.00301 | -72.98776 | 16899 ft | 337 kts | 236° |
| 2026-05-04 15:23 | 41.98863 | -73.01221 | 16977 ft | 340 kts | 236° |
| 2026-05-04 15:23 | 41.97396 | -73.03712 | 17695 ft | 340 kts | 236° |
| 2026-05-04 15:24 | 41.94419 | -73.08761 | 18967 ft | 348 kts | 236° |
| 2026-05-04 15:24 | 41.91383 | -73.13897 | 20175 ft | 354 kts | 236° |
| 2026-05-04 15:25 | 41.89845 | -73.16495 | 20773 ft | 357 kts | 236° |
| 2026-05-04 15:25 | 41.88319 | -73.19070 | 20779 ft | 350 kts | 236° |
| 2026-05-04 15:25 | 41.86788 | -73.21653 | 20126 ft | 355 kts | 236° |
| 2026-05-04 15:26 | 41.83758 | -73.26755 | 19301 ft | 350 kts | 236° |
| 2026-05-04 15:26 | 41.82246 | -73.29299 | 18908 ft | 347 kts | 235° |
| 2026-05-04 15:26 | 41.79243 | -73.34350 | 18097 ft | 348 kts | 235° |
| 2026-05-04 15:27 | 41.77734 | -73.36887 | 18543 ft | 344 kts | 236° |
| 2026-05-04 15:27 | 41.74768 | -73.41866 | 17525 ft | 345 kts | 235° |
| 2026-05-04 15:28 | 41.71818 | -73.46811 | 17113 ft | 341 kts | 235° |
| 2026-05-04 15:28 | 41.70332 | -73.49298 | 16590 ft | 342 kts | 235° |
| 2026-05-04 15:28 | 41.67402 | -73.54197 | 15981 ft | 335 kts | 235° |
| 2026-05-04 15:29 | 41.65944 | -73.56632 | 15933 ft | 337 kts | 235° |
| 2026-05-04 15:30 | 41.60069 | -73.66425 | 15936 ft | 339 kts | 235° |
| 2026-05-04 15:30 | 41.55647 | -73.73772 | 15934 ft | 338 kts | 235° |
| 2026-05-04 15:31 | 41.52715 | -73.78635 | 15928 ft | 336 kts | 235° |
| 2026-05-04 15:31 | 41.51248 | -73.81056 | 15937 ft | 336 kts | 233° |
| 2026-05-04 15:32 | 41.46310 | -73.87670 | 15910 ft | 337 kts | 229° |
| 2026-05-04 15:32 | 41.43015 | -73.92113 | 15916 ft | 337 kts | 230° |
| 2026-05-04 15:33 | 41.39726 | -73.96557 | 15918 ft | 337 kts | 230° |
| 2026-05-04 15:34 | 41.34790 | -74.03220 | 15925 ft | 338 kts | 230° |
| 2026-05-04 15:34 | 41.33137 | -74.05447 | 15920 ft | 338 kts | 230° |
| 2026-05-04 15:34 | 41.29859 | -74.09860 | 15929 ft | 338 kts | 230° |
| 2026-05-04 15:35 | 41.26569 | -74.14282 | 15718 ft | 334 kts | 230° |
| 2026-05-04 15:35 | 41.24964 | -74.16436 | 15717 ft | 320 kts | 230° |
| 2026-05-04 15:35 | 41.23430 | -74.18494 | 15672 ft | 308 kts | 230° |
| 2026-05-04 15:36 | 41.20540 | -74.22368 | 15588 ft | 282 kts | 230° |
| 2026-05-04 15:36 | 41.19223 | -74.24198 | 15600 ft | 275 kts | 237° |
| 2026-05-04 15:36 | 41.18164 | -74.26364 | 15564 ft | 285 kts | 243° |
| 2026-05-04 15:37 | 41.17120 | -74.28629 | 15557 ft | 291 kts | 243° |
| 2026-05-04 15:37 | 41.16061 | -74.30927 | 15557 ft | 293 kts | 243° |
| 2026-05-04 15:37 | 41.14997 | -74.33236 | 15551 ft | 293 kts | 243° |
| 2026-05-04 15:37 | 41.13935 | -74.35542 | 15502 ft | 293 kts | 243° |
| 2026-05-04 15:38 | 41.12873 | -74.37847 | 15435 ft | 293 kts | 243° |
| 2026-05-04 15:38 | 41.11814 | -74.40143 | 15357 ft | 291 kts | 243° |
| 2026-05-04 15:38 | 41.10756 | -74.42435 | 15281 ft | 292 kts | 243° |
| 2026-05-04 15:38 | 41.09696 | -74.44731 | 15193 ft | 292 kts | 243° |
| 2026-05-04 15:39 | 41.08651 | -74.46992 | 15108 ft | 291 kts | 243° |
| 2026-05-04 15:39 | 41.07593 | -74.49281 | 15039 ft | 291 kts | 243° |
| 2026-05-04 15:39 | 41.05478 | -74.53849 | 14882 ft | 291 kts | 243° |
| 2026-05-04 15:40 | 41.04420 | -74.56130 | 14795 ft | 290 kts | 243° |
| 2026-05-04 15:40 | 41.03366 | -74.58404 | 14716 ft | 290 kts | 243° |
| 2026-05-04 15:40 | 41.02308 | -74.60681 | 14640 ft | 290 kts | 243° |
| 2026-05-04 15:40 | 41.01254 | -74.62951 | 14559 ft | 290 kts | 242° |
| 2026-05-04 15:41 | 41.00199 | -74.65220 | 14470 ft | 289 kts | 242° |
| 2026-05-04 15:41 | 40.99144 | -74.67487 | 14392 ft | 289 kts | 242° |
| 2026-05-04 15:41 | 40.98104 | -74.69721 | 14311 ft | 289 kts | 242° |
| 2026-05-04 15:41 | 40.97051 | -74.71980 | 14240 ft | 288 kts | 242° |
| 2026-05-04 15:42 | 40.95999 | -74.74236 | 14136 ft | 288 kts | 242° |
| 2026-05-04 15:42 | 40.94947 | -74.76490 | 14066 ft | 288 kts | 242° |
| 2026-05-04 15:42 | 40.93897 | -74.78740 | 13994 ft | 287 kts | 242° |
| 2026-05-04 15:42 | 40.92847 | -74.80988 | 13916 ft | 287 kts | 242° |
| 2026-05-04 15:43 | 40.91796 | -74.83236 | 13830 ft | 287 kts | 242° |
| 2026-05-04 15:43 | 40.90745 | -74.85479 | 13732 ft | 287 kts | 242° |
| 2026-05-04 15:43 | 40.89709 | -74.87686 | 13646 ft | 287 kts | 242° |
| 2026-05-04 15:43 | 40.88660 | -74.89924 | 13563 ft | 286 kts | 242° |
| 2026-05-04 15:44 | 40.87610 | -74.92158 | 13506 ft | 286 kts | 242° |
| 2026-05-04 15:44 | 40.86564 | -74.94383 | 13405 ft | 285 kts | 242° |
| 2026-05-04 15:44 | 40.85517 | -74.96612 | 13332 ft | 285 kts | 242° |
| 2026-05-04 15:44 | 40.84472 | -74.98833 | 13254 ft | 285 kts | 242° |
| 2026-05-04 15:45 | 40.83427 | -75.01052 | 13166 ft | 284 kts | 242° |
| 2026-05-04 15:45 | 40.82384 | -75.03267 | 13097 ft | 284 kts | 242° |
| 2026-05-04 15:45 | 40.81356 | -75.05446 | 12998 ft | 283 kts | 242° |
| 2026-05-04 15:45 | 40.80315 | -75.07653 | 12941 ft | 283 kts | 242° |
| 2026-05-04 15:46 | 40.79277 | -75.09851 | 12846 ft | 282 kts | 242° |
| 2026-05-04 15:46 | 40.78238 | -75.12048 | 12771 ft | 282 kts | 242° |
| 2026-05-04 15:46 | 40.77200 | -75.14245 | 12694 ft | 281 kts | 242° |
| 2026-05-04 15:46 | 40.76165 | -75.16433 | 12628 ft | 281 kts | 242° |
| 2026-05-04 15:47 | 40.75129 | -75.18619 | 12553 ft | 281 kts | 242° |
| 2026-05-04 15:47 | 40.74095 | -75.20802 | 12469 ft | 281 kts | 242° |
| 2026-05-04 15:47 | 40.73061 | -75.22983 | 12395 ft | 280 kts | 242° |
| 2026-05-04 15:47 | 40.72029 | -75.25157 | 12310 ft | 280 kts | 242° |
| 2026-05-04 15:48 | 40.71011 | -75.27300 | 12232 ft | 280 kts | 242° |
| 2026-05-04 15:48 | 40.69978 | -75.29473 | 12157 ft | 280 kts | 241° |
| 2026-05-04 15:48 | 40.67915 | -75.33811 | 12000 ft | 279 kts | 242° |
| 2026-05-04 15:49 | 40.66885 | -75.35976 | 11919 ft | 279 kts | 241° |
| 2026-05-04 15:49 | 40.65875 | -75.38152 | 11841 ft | 277 kts | 244° |
| 2026-05-04 15:49 | 40.64932 | -75.40366 | 11746 ft | 277 kts | 244° |
| 2026-05-04 15:49 | 40.63989 | -75.42571 | 11679 ft | 276 kts | 244° |
| 2026-05-04 15:50 | 40.63043 | -75.44774 | 11592 ft | 276 kts | 244° |
| 2026-05-04 15:50 | 40.62097 | -75.46971 | 11500 ft | 276 kts | 244° |
| 2026-05-04 15:50 | 40.61164 | -75.49134 | 11429 ft | 275 kts | 244° |
| 2026-05-04 15:50 | 40.60219 | -75.51323 | 11353 ft | 275 kts | 244° |
| 2026-05-04 15:51 | 40.59275 | -75.53506 | 11260 ft | 275 kts | 244° |
| 2026-05-04 15:51 | 40.58335 | -75.55678 | 11189 ft | 274 kts | 244° |
| 2026-05-04 15:51 | 40.57391 | -75.57859 | 11100 ft | 274 kts | 243° |
| 2026-05-04 15:51 | 40.56449 | -75.60036 | 11028 ft | 274 kts | 243° |
| 2026-05-04 15:52 | 40.55505 | -75.62211 | 10945 ft | 274 kts | 243° |
| 2026-05-04 15:52 | 40.54562 | -75.64386 | 10865 ft | 274 kts | 243° |
| 2026-05-04 15:52 | 40.53619 | -75.66557 | 10782 ft | 274 kts | 243° |
| 2026-05-04 15:52 | 40.52688 | -75.68702 | 10704 ft | 273 kts | 243° |
| 2026-05-04 15:53 | 40.51746 | -75.70867 | 10621 ft | 273 kts | 243° |
| 2026-05-04 15:53 | 40.50806 | -75.73031 | 10545 ft | 273 kts | 243° |
| 2026-05-04 15:53 | 40.49864 | -75.75194 | 10455 ft | 273 kts | 243° |
| 2026-05-04 15:53 | 40.48922 | -75.77356 | 10381 ft | 272 kts | 243° |
| 2026-05-04 15:54 | 40.47983 | -75.79509 | 10294 ft | 271 kts | 243° |
| 2026-05-04 15:54 | 40.47053 | -75.81641 | 10218 ft | 268 kts | 243° |
| 2026-05-04 15:54 | 40.46123 | -75.83770 | 10122 ft | 267 kts | 243° |
| 2026-05-04 15:54 | 40.45210 | -75.85862 | 10029 ft | 261 kts | 243° |
| 2026-05-04 15:55 | 40.44317 | -75.87905 | 10003 ft | 257 kts | 243° |
| 2026-05-04 15:55 | 40.43184 | -75.89732 | 9974 ft | 260 kts | 227° |
| 2026-05-04 15:55 | 40.41896 | -75.91362 | 9994 ft | 261 kts | 229° |
| 2026-05-04 15:55 | 40.40596 | -75.93020 | 9973 ft | 259 kts | 228° |
| 2026-05-04 15:56 | 40.39354 | -75.94599 | 10020 ft | 238 kts | 229° |
| 2026-05-04 15:56 | 40.38173 | -75.96100 | 9880 ft | 234 kts | 229° |
| 2026-05-04 15:56 | 40.37029 | -75.97552 | 9936 ft | 229 kts | 229° |
| 2026-05-04 15:56 | 40.35840 | -75.99065 | 9951 ft | 247 kts | 228° |
| 2026-05-04 15:57 | 40.34579 | -76.00661 | 9959 ft | 256 kts | 228° |
| 2026-05-04 15:57 | 40.33286 | -76.02299 | 9961 ft | 260 kts | 228° |
| 2026-05-04 15:57 | 40.31981 | -76.03950 | 9967 ft | 261 kts | 228° |
| 2026-05-04 15:57 | 40.30693 | -76.05580 | 9971 ft | 261 kts | 228° |
| 2026-05-04 15:58 | 40.29385 | -76.07234 | 9961 ft | 261 kts | 228° |
| 2026-05-04 15:58 | 40.28077 | -76.08887 | 9975 ft | 262 kts | 228° |
| 2026-05-04 15:58 | 40.26767 | -76.10541 | 9977 ft | 262 kts | 228° |
| 2026-05-04 15:58 | 40.25461 | -76.12189 | 10002 ft | 254 kts | 228° |
| 2026-05-04 15:59 | 40.24243 | -76.13723 | 10007 ft | 233 kts | 229° |
| 2026-05-04 15:59 | 40.23123 | -76.15133 | 9997 ft | 214 kts | 229° |
| 2026-05-04 15:59 | 40.22110 | -76.16410 | 9954 ft | 198 kts | 229° |
| 2026-05-04 15:59 | 40.21137 | -76.17637 | 9888 ft | 194 kts | 230° |
| 2026-05-04 16:00 | 40.20154 | -76.18877 | 9910 ft | 199 kts | 229° |
| 2026-05-04 16:00 | 40.19150 | -76.20141 | 9981 ft | 201 kts | 229° |
| 2026-05-04 16:00 | 40.18138 | -76.21416 | 9988 ft | 202 kts | 229° |
| 2026-05-04 16:00 | 40.17123 | -76.22691 | 9970 ft | 202 kts | 229° |
| 2026-05-04 16:01 | 40.16111 | -76.23963 | 9946 ft | 201 kts | 229° |
| 2026-05-04 16:01 | 40.15102 | -76.25231 | 9948 ft | 201 kts | 229° |
| 2026-05-04 16:01 | 40.14091 | -76.26502 | 9958 ft | 202 kts | 229° |
| 2026-05-04 16:01 | 40.13093 | -76.27755 | 9960 ft | 202 kts | 229° |
| 2026-05-04 16:02 | 40.12105 | -76.29048 | 9944 ft | 199 kts | 236° |
| 2026-05-04 16:02 | 40.11355 | -76.30546 | 9960 ft | 197 kts | 243° |
| 2026-05-04 16:02 | 40.09934 | -76.33617 | 9946 ft | 198 kts | 243° |
| 2026-05-04 16:03 | 40.09224 | -76.35158 | 9950 ft | 198 kts | 243° |
| 2026-05-04 16:03 | 40.08511 | -76.36700 | 9954 ft | 199 kts | 243° |
| 2026-05-04 16:03 | 40.07797 | -76.38248 | 9911 ft | 198 kts | 243° |
| 2026-05-04 16:03 | 40.07085 | -76.39790 | 9890 ft | 198 kts | 243° |
| 2026-05-04 16:04 | 40.06382 | -76.41311 | 9952 ft | 199 kts | 243° |
| 2026-05-04 16:04 | 40.04951 | -76.44405 | 10070 ft | 199 kts | 243° |
| 2026-05-04 16:04 | 40.04235 | -76.45956 | 10062 ft | 200 kts | 243° |
| 2026-05-04 16:05 | 40.03517 | -76.47508 | 10074 ft | 200 kts | 243° |
| 2026-05-04 16:05 | 40.02800 | -76.49059 | 10058 ft | 200 kts | 243° |
| 2026-05-04 16:05 | 40.01369 | -76.52147 | 9861 ft | 198 kts | 243° |
| 2026-05-04 16:06 | 40.00665 | -76.53664 | 9914 ft | 197 kts | 243° |
| 2026-05-04 16:06 | 39.98846 | -76.57588 | 9955 ft | 187 kts | 243° |
| 2026-05-04 16:07 | 39.97945 | -76.59525 | 9950 ft | 187 kts | 243° |
| 2026-05-04 16:07 | 39.95924 | -76.63879 | 9967 ft | 187 kts | 243° |
| 2026-05-04 16:08 | 39.95249 | -76.65327 | 9951 ft | 187 kts | 243° |
| 2026-05-04 16:08 | 39.93233 | -76.69654 | 9967 ft | 187 kts | 243° |
| 2026-05-04 16:09 | 39.91885 | -76.72546 | 9958 ft | 187 kts | 243° |
| 2026-05-04 16:09 | 39.90534 | -76.75441 | 9954 ft | 187 kts | 243° |
| 2026-05-04 16:10 | 39.89187 | -76.78323 | 9956 ft | 186 kts | 243° |
| 2026-05-04 16:11 | 39.87172 | -76.82635 | 9958 ft | 186 kts | 242° |
| 2026-05-04 16:11 | 39.86496 | -76.84077 | 9951 ft | 187 kts | 243° |
| 2026-05-04 16:12 | 39.84477 | -76.88385 | 9982 ft | 184 kts | 243° |
| 2026-05-04 16:12 | 39.82489 | -76.92621 | 9976 ft | 183 kts | 243° |
| 2026-05-04 16:13 | 39.81171 | -76.95429 | 9969 ft | 183 kts | 242° |
| 2026-05-04 16:13 | 39.79842 | -76.98259 | 9977 ft | 183 kts | 243° |
| 2026-05-04 16:14 | 39.78512 | -77.01087 | 9970 ft | 184 kts | 242° |
| 2026-05-04 16:14 | 39.77179 | -77.03917 | 9975 ft | 183 kts | 243° |
| 2026-05-04 16:15 | 39.75187 | -77.08143 | 9973 ft | 184 kts | 243° |
| 2026-05-04 16:16 | 39.73850 | -77.10976 | 9974 ft | 184 kts | 243° |
| 2026-05-04 16:16 | 39.71838 | -77.15236 | 9984 ft | 184 kts | 243° |
| 2026-05-04 16:17 | 39.70506 | -77.18046 | 9971 ft | 184 kts | 242° |
| 2026-05-04 16:18 | 39.68482 | -77.22279 | 9958 ft | 186 kts | 236° |
| 2026-05-04 16:18 | 39.67573 | -77.23485 | 9922 ft | 187 kts | 229° |
| 2026-05-04 16:19 | 39.64743 | -77.26899 | 9641 ft | 185 kts | 229° |
| 2026-05-04 16:19 | 39.62877 | -77.29140 | 9459 ft | 183 kts | 228° |
| 2026-05-04 16:20 | 39.60073 | -77.32503 | 9247 ft | 183 kts | 228° |
| 2026-05-04 16:20 | 39.58210 | -77.34736 | 9050 ft | 182 kts | 227° |
| 2026-05-04 16:21 | 39.55070 | -77.37556 | 8994 ft | 186 kts | 218° |
| 2026-05-04 16:22 | 39.52854 | -77.39305 | 8984 ft | 186 kts | 218° |
| 2026-05-04 16:22 | 39.49667 | -77.41809 | 9053 ft | 166 kts | 219° |
| 2026-05-04 16:23 | 39.46648 | -77.44176 | 8706 ft | 172 kts | 218° |
| 2026-05-04 16:24 | 39.41222 | -77.45253 | 5825 ft | 227 kts | 186° |
| 2026-05-04 16:25 | 39.37969 | -77.45326 | 4168 ft | 235 kts | 184° |
| 2026-05-04 16:26 | 39.31367 | -77.45503 | 2872 ft | 238 kts | 196° |
| 2026-05-04 16:26 | 39.26610 | -77.46301 | 2391 ft | 229 kts | 174° |
| 2026-05-04 16:27 | 39.23777 | -77.45679 | 2246 ft | 191 kts | 172° |
| 2026-05-04 16:28 | 39.20253 | -77.45012 | 2230 ft | 160 kts | 192° |
| 2026-05-04 16:28 | 39.17163 | -77.46380 | 1689 ft | 170 kts | 180° |
| 2026-05-04 16:29 | 39.12059 | -77.46828 | 2767 ft | 189 kts | 180° |
| 2026-05-04 16:30 | 39.08515 | -77.45618 | 2085 ft | 151 kts | 162° |
| 2026-05-04 16:31 | 39.06565 | -77.44689 | 2060 ft | 157 kts | 156° |
| 2026-05-04 16:31 | 39.03678 | -77.43437 | 2132 ft | 146 kts | 207° |
| 2026-05-04 16:32 | 39.00562 | -77.43508 | 2009 ft | 149 kts | 180° |
| 2026-05-04 16:33 | 38.98378 | -77.43559 | 1004 ft | 162 kts | 184° |
| 2026-05-04 16:33 | 38.96240 | -77.43577 | 468 ft | 146 kts | 184° |
| 2026-05-04 16:34 | 38.94326 | -77.43617 | 298 ft | 96 kts | 180° |
| 2026-05-04 16:34 | 38.93962 | -77.43657 | 299 ft | 28 kts | 211° |
| 2026-05-04 16:35 | 38.93841 | -77.43756 | 300 ft | 0 kts | 212° |
| 2026-05-04 16:35 | 38.93840 | -77.43757 | 302 ft | 0 kts | 212° |
| 2026-05-04 16:36 | 38.93839 | -77.43757 | 302 ft | 1 kts | 212° |
| 2026-05-04 16:36 | 38.93811 | -77.43779 | 300 ft | 5 kts | 210° |
| 2026-05-04 16:37 | 38.93736 | -77.43913 | 301 ft | 12 kts | 275° |
| 2026-05-04 16:37 | 38.93787 | -77.43981 | 302 ft | 12 kts | 352° |
| 2026-05-04 16:37 | 38.93954 | -77.43980 | 304 ft | 12 kts | 1° |
| 2026-05-04 16:38 | 38.94157 | -77.43979 | 302 ft | 18 kts | 1° |
| 2026-05-04 16:39 | 38.94484 | -77.43973 | 299 ft | 17 kts | 0° |
| 2026-05-04 16:39 | 38.94767 | -77.43971 | 296 ft | 16 kts | 2° |
| 2026-05-04 16:40 | 38.94976 | -77.43968 | 291 ft | 0 kts | 1° |
| 2026-05-04 16:40 | 38.95002 | -77.43954 | 292 ft | 4 kts | 56° |
| 2026-05-04 16:41 | 38.94982 | -77.43855 | 291 ft | 8 kts | 158° |
| 2026-05-04 16:41 | 38.94761 | -77.43856 | 291 ft | 14 kts | 185° |
| 2026-05-04 16:42 | 38.94679 | -77.43979 | 296 ft | 6 kts | 211° |
| 2026-05-04 16:43 | 38.94626 | -77.44084 | 299 ft | 6 kts | 185° |
| 2026-05-04 16:43 | 38.94602 | -77.44081 | 300 ft | 2 kts | 176° |
| 2026-05-04 16:43 | 38.94596 | -77.44080 | 301 ft | 0 kts | 179° |
| 2026-05-04 16:44 | 38.94584 | -77.44080 | 298 ft | 0 kts | 180° |